createdAt,value
2022-08-29T00:00:38.064Z,98.24
2022-08-29T00:01:38.018Z,98.75
2022-08-29T00:02:38.088Z,99.05
2022-08-29T00:03:37.994Z,98.54
2022-08-29T00:04:38.028Z,98.85
2022-08-29T00:05:37.983Z,98.90
2022-08-29T00:06:37.995Z,98.54
2022-08-29T00:07:37.954Z,98.85
2022-08-29T00:08:37.949Z,98.75
2022-08-29T00:09:37.934Z,98.75
2022-08-29T00:10:37.929Z,98.65
2022-08-29T00:11:40.516Z,99.20
2022-08-29T00:12:39.022Z,98.95
2022-08-29T00:13:37.895Z,98.75
2022-08-29T00:14:37.878Z,98.69
2022-08-29T00:15:44.592Z,98.65
2022-08-29T00:16:38.899Z,98.54
2022-08-29T00:17:37.844Z,98.59
2022-08-29T00:18:37.846Z,98.79
2022-08-29T00:19:37.838Z,99.00
2022-08-29T00:20:37.819Z,98.79
2022-08-29T00:21:37.805Z,98.79
2022-08-29T00:22:37.792Z,98.75
2022-08-29T00:23:37.780Z,98.79
2022-08-29T00:24:37.782Z,99.16
2022-08-29T00:25:37.783Z,99.16
2022-08-29T00:26:37.788Z,99.05
2022-08-29T00:27:37.736Z,99.20
2022-08-29T00:28:37.723Z,99.00
2022-08-29T00:29:37.717Z,98.95
2022-08-29T00:30:37.701Z,98.75
2022-08-29T00:31:37.876Z,98.69
2022-08-29T00:32:37.692Z,99.10
2022-08-29T00:33:39.185Z,98.79
2022-08-29T00:34:37.657Z,98.65
2022-08-29T00:35:37.650Z,99.00
2022-08-29T00:36:37.779Z,98.69
2022-08-29T00:37:37.667Z,98.24
2022-08-29T00:38:37.624Z,98.65
2022-08-29T00:39:37.604Z,98.65
2022-08-29T00:40:37.730Z,98.54
2022-08-29T00:41:37.688Z,98.69
2022-08-29T00:42:37.587Z,99.30
2022-08-29T00:43:37.586Z,99.91
2022-08-29T00:44:37.550Z,99.41
2022-08-29T00:45:37.621Z,99.30
2022-08-29T00:46:37.531Z,98.59
2022-08-29T00:47:37.521Z,98.79
2022-08-29T00:48:37.505Z,98.90
2022-08-29T00:49:37.504Z,99.00
2022-08-29T00:50:37.483Z,98.79
2022-08-29T00:51:37.588Z,98.54
2022-08-29T00:52:37.462Z,98.59
2022-08-29T00:53:37.454Z,98.79
2022-08-29T00:54:37.443Z,98.90
2022-08-29T00:55:37.454Z,98.79
2022-08-29T00:56:37.500Z,98.49
2022-08-29T00:57:37.418Z,98.59
2022-08-29T00:58:37.412Z,98.39
2022-08-29T00:59:37.437Z,97.98
2022-08-29T01:00:37.409Z,98.28
2022-08-29T01:01:37.430Z,98.18
2022-08-29T01:02:40.433Z,98.28
2022-08-29T01:03:37.360Z,97.98
2022-08-29T01:04:38.337Z,98.49
2022-08-29T01:05:37.327Z,97.88
2022-08-29T01:06:37.393Z,98.18
2022-08-29T01:07:37.328Z,98.28
2022-08-29T01:08:37.290Z,98.84
2022-08-29T01:09:37.293Z,98.59
2022-08-29T01:10:37.264Z,98.79
2022-08-29T01:11:37.269Z,98.69
2022-08-29T01:12:37.258Z,98.79
2022-08-29T01:13:37.239Z,98.79
2022-08-29T01:14:38.737Z,98.69
2022-08-29T01:15:37.216Z,98.79
2022-08-29T01:16:37.454Z,98.49
2022-08-29T01:17:37.191Z,98.90
2022-08-29T01:18:37.194Z,98.79
2022-08-29T01:19:37.176Z,99.10
2022-08-29T01:20:37.185Z,98.69
2022-08-29T01:21:37.212Z,98.79
2022-08-29T01:22:37.146Z,98.39
2022-08-29T01:23:37.139Z,98.94
2022-08-29T01:24:37.151Z,99.10
2022-08-29T01:25:37.112Z,98.90
2022-08-29T01:26:37.104Z,98.94
2022-08-29T01:27:37.144Z,98.74
2022-08-29T01:28:37.080Z,98.84
2022-08-29T01:29:37.064Z,98.74
2022-08-29T01:30:37.054Z,98.64
2022-08-29T01:31:38.577Z,99.50
2022-08-29T01:32:38.043Z,99.09
2022-08-29T01:33:37.037Z,98.02
2022-08-29T01:34:37.009Z,97.62
2022-08-29T01:35:36.999Z,97.82
2022-08-29T01:36:37.000Z,96.86
2022-08-29T01:37:36.978Z,97.11
2022-08-29T01:38:36.964Z,97.98
2022-08-29T01:39:36.982Z,98.43
2022-08-29T01:40:37.028Z,98.84
2022-08-29T01:41:36.968Z,99.00
2022-08-29T01:42:37.380Z,98.74
2022-08-29T01:43:36.938Z,98.64
2022-08-29T01:44:36.904Z,98.74
2022-08-29T01:45:36.941Z,99.25
2022-08-29T01:46:36.943Z,99.35
2022-08-29T01:47:36.873Z,98.94
2022-08-29T01:48:36.859Z,99.40
2022-08-29T01:49:38.512Z,98.74
2022-08-29T01:50:36.842Z,98.74
2022-08-29T01:51:36.867Z,98.54
2022-08-29T01:52:36.842Z,98.84
2022-08-29T01:53:36.804Z,98.64
2022-08-29T01:54:36.804Z,99.35
2022-08-29T01:55:36.779Z,99.15
2022-08-29T01:56:36.772Z,99.45
2022-08-29T01:57:36.758Z,99.35
2022-08-29T01:58:36.778Z,98.99
2022-08-29T01:59:36.752Z,99.45
2022-08-29T02:00:36.801Z,99.50
2022-08-29T02:01:36.770Z,99.60
2022-08-29T02:02:36.829Z,99.35
2022-08-29T02:03:36.701Z,99.66
2022-08-29T02:04:36.764Z,99.19
2022-08-29T02:05:36.687Z,99.19
2022-08-29T02:06:36.660Z,99.35
2022-08-29T02:07:36.648Z,99.40
2022-08-29T02:08:36.639Z,99.40
2022-08-29T02:09:36.629Z,99.50
2022-08-29T02:10:36.656Z,99.50
2022-08-29T02:11:36.608Z,99.91
2022-08-29T02:12:36.604Z,99.80
2022-08-29T02:13:36.605Z,99.91
2022-08-29T02:14:36.579Z,99.99
2022-08-29T02:15:36.567Z,99.60
2022-08-29T02:16:36.640Z,99.99
2022-08-29T02:17:36.546Z,99.50
2022-08-29T02:18:36.532Z,99.50
2022-08-29T02:19:36.533Z,99.19
2022-08-29T02:20:36.513Z,99.09
2022-08-29T02:21:36.498Z,98.89
2022-08-29T02:22:36.545Z,98.89
2022-08-29T02:23:36.584Z,99.60
2022-08-29T02:24:36.469Z,98.83
2022-08-29T02:25:36.456Z,98.22
2022-08-29T02:26:36.448Z,98.18
2022-08-29T02:27:36.458Z,98.07
2022-08-29T02:28:36.429Z,98.18
2022-08-29T02:29:37.878Z,98.18
2022-08-29T02:30:36.401Z,98.18
2022-08-29T02:31:36.444Z,98.27
2022-08-29T02:32:36.384Z,98.18
2022-08-29T02:33:36.370Z,98.07
2022-08-29T02:34:36.395Z,98.02
2022-08-29T02:35:38.019Z,98.38
2022-08-29T02:36:37.337Z,98.93
2022-08-29T02:37:36.326Z,99.34
2022-08-29T02:38:36.319Z,98.73
2022-08-29T02:39:36.309Z,99.44
2022-08-29T02:40:36.365Z,99.04
2022-08-29T02:41:36.283Z,99.44
2022-08-29T02:42:36.278Z,98.83
2022-08-29T02:43:36.281Z,98.93
2022-08-29T02:44:36.250Z,98.93
2022-08-29T02:45:36.247Z,98.22
2022-08-29T02:46:36.345Z,97.81
2022-08-29T02:47:36.235Z,97.91
2022-08-29T02:48:36.207Z,97.50
2022-08-29T02:49:36.227Z,97.91
2022-08-29T02:50:36.186Z,98.32
2022-08-29T02:51:36.179Z,98.22
2022-08-29T02:52:37.370Z,98.93
2022-08-29T02:53:36.157Z,98.73
2022-08-29T02:54:36.143Z,99.54
2022-08-29T02:55:36.156Z,99.54
2022-08-29T02:56:36.122Z,99.34
2022-08-29T02:57:36.119Z,99.99
2022-08-29T02:58:36.121Z,99.44
2022-08-29T02:59:36.093Z,99.34
2022-08-29T03:00:36.140Z,99.65
2022-08-29T03:01:36.133Z,99.85
2022-08-29T03:02:36.079Z,99.95
2022-08-29T03:03:36.048Z,99.65
2022-08-29T03:04:36.053Z,99.99
2022-08-29T03:05:36.027Z,99.75
2022-08-29T03:06:36.019Z,99.79
2022-08-29T03:07:36.009Z,98.98
2022-08-29T03:08:36.012Z,99.08
2022-08-29T03:09:35.983Z,99.99
2022-08-29T03:10:35.996Z,99.69
2022-08-29T03:11:35.976Z,99.59
2022-08-29T03:12:35.951Z,99.99
2022-08-29T03:13:35.941Z,99.90
2022-08-29T03:14:35.941Z,99.79
2022-08-29T03:15:35.918Z,99.65
2022-08-29T03:16:36.004Z,99.34
2022-08-29T03:17:35.897Z,99.34
2022-08-29T03:18:35.882Z,99.44
2022-08-29T03:19:37.492Z,98.93
2022-08-29T03:20:35.860Z,99.14
2022-08-29T03:21:35.852Z,99.85
2022-08-29T03:22:35.854Z,99.44
2022-08-29T03:23:35.831Z,99.49
2022-08-29T03:24:35.820Z,99.34
2022-08-29T03:25:35.919Z,99.69
2022-08-29T03:26:35.797Z,99.69
2022-08-29T03:27:35.791Z,99.49
2022-08-29T03:28:35.808Z,99.44
2022-08-29T03:29:35.766Z,99.44
2022-08-29T03:30:35.811Z,98.77
2022-08-29T03:31:35.872Z,99.59
2022-08-29T03:32:35.733Z,99.04
2022-08-29T03:33:35.729Z,99.14
2022-08-29T03:34:35.734Z,98.83
2022-08-29T03:35:35.706Z,98.52
2022-08-29T03:36:35.693Z,98.27
2022-08-29T03:37:35.703Z,98.06
2022-08-29T03:38:35.669Z,98.06
2022-08-29T03:39:35.657Z,98.32
2022-08-29T03:40:35.743Z,99.04
2022-08-29T03:41:35.634Z,98.11
2022-08-29T03:42:35.644Z,98.63
2022-08-29T03:43:35.617Z,98.27
2022-08-29T03:44:35.605Z,98.68
2022-08-29T03:45:35.598Z,99.08
2022-08-29T03:46:35.631Z,98.63
2022-08-29T03:47:35.577Z,98.57
2022-08-29T03:48:35.582Z,98.06
2022-08-29T03:49:35.550Z,98.57
2022-08-29T03:50:35.552Z,98.98
2022-08-29T03:51:35.529Z,98.98
2022-08-29T03:52:35.601Z,98.57
2022-08-29T03:53:35.519Z,97.75
2022-08-29T03:54:35.509Z,99.08
2022-08-29T03:55:35.485Z,98.27
2022-08-29T03:56:35.479Z,98.16
2022-08-29T03:57:35.467Z,98.36
2022-08-29T03:58:35.512Z,98.31
2022-08-29T03:59:35.464Z,98.11
2022-08-29T04:00:35.430Z,98.27
2022-08-29T04:01:35.473Z,97.65
2022-08-29T04:02:35.460Z,97.14
2022-08-29T04:03:35.403Z,97.45
2022-08-29T04:04:35.417Z,97.49
2022-08-29T04:05:35.386Z,96.88
2022-08-29T04:06:35.385Z,97.39
2022-08-29T04:07:35.355Z,96.63
2022-08-29T04:08:35.347Z,96.98
2022-08-29T04:09:35.332Z,96.58
2022-08-29T04:10:35.368Z,97.04
2022-08-29T04:11:35.324Z,97.49
2022-08-29T04:12:35.310Z,96.98
2022-08-29T04:13:35.303Z,96.33
2022-08-29T04:14:35.371Z,97.19
2022-08-29T04:15:35.273Z,96.73
2022-08-29T04:16:35.323Z,97.39
2022-08-29T04:17:35.251Z,97.19
2022-08-29T04:18:35.241Z,97.39
2022-08-29T04:19:35.231Z,97.19
2022-08-29T04:20:35.232Z,97.39
2022-08-29T04:21:35.216Z,97.49
2022-08-29T04:22:35.227Z,97.08
2022-08-29T04:23:35.191Z,97.49
2022-08-29T04:24:35.176Z,97.49
2022-08-29T04:25:37.163Z,97.65
2022-08-29T04:26:37.274Z,97.65
2022-08-29T04:27:35.141Z,98.16
2022-08-29T04:28:35.128Z,98.41
2022-08-29T04:29:35.170Z,98.36
2022-08-29T04:30:35.123Z,98.41
2022-08-29T04:31:35.219Z,98.41
2022-08-29T04:32:35.095Z,98.31
2022-08-29T04:33:35.074Z,98.11
2022-08-29T04:34:35.065Z,98.21
2022-08-29T04:35:35.078Z,98.61
2022-08-29T04:36:35.068Z,98.11
2022-08-29T04:37:35.040Z,98.21
2022-08-29T04:38:35.023Z,98.77
2022-08-29T04:39:35.008Z,98.61
2022-08-29T04:40:35.112Z,97.60
2022-08-29T04:41:35.032Z,97.49
2022-08-29T04:42:34.982Z,97.75
2022-08-29T04:43:34.966Z,97.80
2022-08-29T04:44:34.956Z,97.24
2022-08-29T04:45:34.946Z,96.94
2022-08-29T04:46:35.043Z,97.14
2022-08-29T04:47:34.944Z,97.34
2022-08-29T04:48:34.927Z,97.45
2022-08-29T04:49:34.904Z,97.14
2022-08-29T04:50:34.893Z,97.29
2022-08-29T04:51:34.984Z,96.73
2022-08-29T04:52:34.877Z,97.45
2022-08-29T04:53:34.896Z,97.14
2022-08-29T04:54:34.876Z,97.14
2022-08-29T04:55:34.840Z,96.94
2022-08-29T04:56:34.865Z,96.94
2022-08-29T04:57:34.927Z,97.04
2022-08-29T04:58:34.814Z,96.18
2022-08-29T04:59:34.797Z,96.33
2022-08-29T05:00:34.825Z,96.38
2022-08-29T05:01:34.906Z,96.12
2022-08-29T05:02:34.802Z,96.18
2022-08-29T05:03:34.767Z,96.33
2022-08-29T05:04:34.746Z,95.92
2022-08-29T05:05:34.731Z,96.12
2022-08-29T05:06:34.775Z,96.43
2022-08-29T05:07:34.714Z,96.89
2022-08-29T05:08:34.709Z,96.28
2022-08-29T05:09:34.705Z,96.59
2022-08-29T05:10:34.676Z,96.08
2022-08-29T05:11:34.662Z,95.67
2022-08-29T05:12:34.657Z,96.63
2022-08-29T05:13:34.644Z,96.43
2022-08-29T05:14:34.688Z,95.87
2022-08-29T05:15:34.698Z,96.43
2022-08-29T05:16:34.609Z,96.84
2022-08-29T05:17:34.597Z,96.94
2022-08-29T05:18:34.628Z,96.94
2022-08-29T05:19:35.466Z,97.34
2022-08-29T05:20:34.590Z,97.45
2022-08-29T05:21:35.668Z,96.53
2022-08-29T05:22:34.551Z,96.12
2022-08-29T05:23:34.665Z,96.22
2022-08-29T05:24:34.528Z,96.12
2022-08-29T05:25:34.515Z,96.33
2022-08-29T05:26:34.523Z,96.02
2022-08-29T05:27:34.489Z,95.16
2022-08-29T05:28:34.484Z,95.47
2022-08-29T05:29:34.482Z,95.36
2022-08-29T05:30:35.500Z,95.47
2022-08-29T05:31:34.512Z,95.16
2022-08-29T05:32:34.445Z,94.55
2022-08-29T05:33:34.461Z,95.36
2022-08-29T05:34:35.264Z,94.56
2022-08-29T05:35:34.404Z,92.48
2022-08-29T05:36:34.401Z,92.64
2022-08-29T05:37:34.384Z,88.69
2022-08-29T05:38:34.378Z,88.44
2022-08-29T05:39:34.383Z,86.57
2022-08-29T05:40:34.439Z,83.85
2022-08-29T05:41:38.403Z,83.81
2022-08-29T05:42:34.328Z,83.47
2022-08-29T05:43:34.336Z,83.59
2022-08-29T05:44:35.447Z,83.65
2022-08-29T05:45:34.410Z,83.21
2022-08-29T05:46:34.350Z,80.64
2022-08-29T05:47:34.275Z,78.28
2022-08-29T05:48:34.268Z,77.57
2022-08-29T05:49:34.261Z,77.47
2022-08-29T05:50:34.246Z,80.66
2022-08-29T05:51:38.931Z,82.32
2022-08-29T05:52:35.225Z,81.11
2022-08-29T05:53:34.212Z,82.36
2022-08-29T05:54:34.221Z,82.42
2022-08-29T05:55:34.205Z,82.08
2022-08-29T05:56:34.175Z,82.28
2022-08-29T05:57:34.179Z,80.77
2022-08-29T05:58:34.161Z,79.75
2022-08-29T05:59:34.143Z,78.99
2022-08-29T06:00:34.228Z,82.08
2022-08-29T06:01:34.124Z,81.31
2022-08-29T06:02:34.258Z,81.51
2022-08-29T06:03:34.275Z,82.02
2022-08-29T06:04:34.157Z,83.13
2022-08-29T06:05:34.080Z,84.04
2022-08-29T06:06:34.312Z,82.18
2022-08-29T06:07:34.060Z,80.80
2022-08-29T06:08:34.058Z,81.11
2022-08-29T06:09:34.033Z,82.06
2022-08-29T06:10:34.049Z,81.90
2022-08-29T06:11:34.022Z,82.60
2022-08-29T06:12:34.028Z,82.70
2022-08-29T06:13:33.995Z,82.36
2022-08-29T06:14:33.991Z,81.05
2022-08-29T06:15:34.038Z,82.56
2022-08-29T06:16:33.986Z,81.17
2022-08-29T06:17:33.964Z,80.12
2022-08-29T06:18:36.211Z,79.86
2022-08-29T06:19:34.044Z,79.88
2022-08-29T06:20:33.921Z,80.05
2022-08-29T06:21:33.911Z,79.74
2022-08-29T06:22:39.577Z,80.55
2022-08-29T06:23:34.889Z,79.41
2022-08-29T06:24:33.875Z,80.01
2022-08-29T06:25:41.080Z,80.18
2022-08-29T06:26:34.864Z,79.06
2022-08-29T06:27:33.844Z,78.46
2022-08-29T06:28:33.849Z,79.57
2022-08-29T06:29:36.280Z,78.52
2022-08-29T06:30:34.844Z,78.46
2022-08-29T06:31:33.803Z,77.99
2022-08-29T06:32:33.792Z,77.28
2022-08-29T06:33:33.775Z,79.41
2022-08-29T06:34:33.775Z,76.98
2022-08-29T06:35:33.796Z,75.60
2022-08-29T06:36:33.762Z,75.74
2022-08-29T06:37:33.733Z,77.36
2022-08-29T06:38:33.728Z,76.04
2022-08-29T06:39:33.817Z,76.21
2022-08-29T06:40:33.735Z,75.27
2022-08-29T06:41:33.823Z,75.27
2022-08-29T06:42:33.679Z,75.57
2022-08-29T06:43:33.666Z,74.63
2022-08-29T06:44:33.692Z,73.88
2022-08-29T06:45:33.663Z,76.54
2022-08-29T06:46:33.738Z,76.00
2022-08-29T06:47:33.623Z,76.67
2022-08-29T06:48:33.802Z,76.07
2022-08-29T06:49:33.609Z,76.84
2022-08-29T06:50:33.611Z,75.63
2022-08-29T06:51:33.605Z,76.23
2022-08-29T06:52:33.573Z,75.43
2022-08-29T06:53:37.311Z,76.03
2022-08-29T06:54:33.556Z,74.62
2022-08-29T06:55:33.582Z,73.48
2022-08-29T06:56:33.547Z,74.99
2022-08-29T06:57:33.513Z,75.90
2022-08-29T06:58:33.512Z,76.17
2022-08-29T06:59:33.507Z,73.35
2022-08-29T07:00:33.512Z,73.35
2022-08-29T07:01:33.592Z,73.14
2022-08-29T07:02:33.572Z,73.48
2022-08-29T07:03:33.448Z,71.53
2022-08-29T07:04:33.446Z,74.08
2022-08-29T07:05:33.426Z,70.16
2022-08-29T07:06:33.437Z,69.85
2022-08-29T07:07:33.403Z,69.65
2022-08-29T07:08:33.412Z,69.69
2022-08-29T07:09:33.388Z,70.16
2022-08-29T07:10:33.385Z,71.94
2022-08-29T07:11:35.597Z,71.56
2022-08-29T07:12:34.369Z,71.33
2022-08-29T07:13:33.339Z,72.31
2022-08-29T07:14:33.334Z,71.70
2022-08-29T07:15:33.350Z,73.58
2022-08-29T07:16:33.310Z,71.47
2022-08-29T07:17:33.327Z,68.85
2022-08-29T07:18:33.290Z,68.45
2022-08-29T07:19:33.286Z,68.05
2022-08-29T07:20:33.271Z,69.35
2022-08-29T07:21:33.265Z,67.91
2022-08-29T07:22:33.302Z,68.78
2022-08-29T07:23:33.288Z,70.06
2022-08-29T07:24:33.245Z,69.38
2022-08-29T07:25:33.211Z,68.82
2022-08-29T07:26:33.211Z,69.45
2022-08-29T07:27:33.209Z,69.65
2022-08-29T07:28:34.023Z,73.28
2022-08-29T07:29:33.171Z,69.99
2022-08-29T07:30:33.268Z,71.50
2022-08-29T07:31:33.162Z,70.36
2022-08-29T07:32:33.265Z,71.30
2022-08-29T07:33:35.125Z,72.91
2022-08-29T07:34:33.133Z,71.20
2022-08-29T07:35:33.109Z,72.11
2022-08-29T07:36:34.448Z,72.11
2022-08-29T07:37:33.093Z,71.64
2022-08-29T07:38:33.093Z,73.28
2022-08-29T07:39:33.089Z,71.33
2022-08-29T07:40:33.120Z,69.92
2022-08-29T07:41:33.048Z,71.33
2022-08-29T07:42:33.052Z,75.12
2022-08-29T07:43:33.071Z,73.10
2022-08-29T07:44:34.429Z,70.50
2022-08-29T07:45:33.052Z,69.79
2022-08-29T07:46:32.988Z,71.06
2022-08-29T07:47:32.987Z,69.85
2022-08-29T07:48:33.011Z,69.39
2022-08-29T07:49:41.064Z,69.69
2022-08-29T07:50:33.945Z,70.29
2022-08-29T07:51:32.950Z,69.96
2022-08-29T07:52:32.930Z,71.67
2022-08-29T07:53:32.916Z,72.00
2022-08-29T07:54:32.899Z,71.90
2022-08-29T07:55:32.894Z,69.92
2022-08-29T07:56:37.581Z,73.55
2022-08-29T07:57:33.869Z,71.40
2022-08-29T07:58:33.854Z,71.77
2022-08-29T07:59:32.864Z,70.46
2022-08-29T08:00:32.840Z,72.00
2022-08-29T08:01:32.875Z,69.89
2022-08-29T08:02:32.883Z,70.06
2022-08-29T08:03:32.802Z,71.73
2022-08-29T08:04:32.812Z,71.83
2022-08-29T08:05:32.782Z,71.53
2022-08-29T08:06:34.437Z,71.36
2022-08-29T08:07:32.811Z,72.87
2022-08-29T08:08:32.765Z,71.60
2022-08-29T08:09:32.735Z,70.12
2022-08-29T08:10:32.733Z,71.40
2022-08-29T08:11:32.721Z,70.83
2022-08-29T08:12:32.770Z,71.20
2022-08-29T08:13:33.407Z,70.19
2022-08-29T08:14:34.820Z,70.23
2022-08-29T08:15:32.675Z,71.63
2022-08-29T08:16:32.872Z,69.53
2022-08-29T08:17:32.664Z,68.99
2022-08-29T08:18:32.643Z,67.02
2022-08-29T08:19:32.656Z,68.22
2022-08-29T08:20:32.637Z,69.85
2022-08-29T08:21:32.608Z,67.78
2022-08-29T08:22:32.648Z,68.02
2022-08-29T08:23:32.619Z,69.72
2022-08-29T08:24:32.592Z,69.42
2022-08-29T08:25:32.580Z,68.65
2022-08-29T08:26:32.578Z,69.65
2022-08-29T08:27:32.545Z,69.56
2022-08-29T08:28:32.544Z,70.23
2022-08-29T08:29:32.530Z,69.56
2022-08-29T08:30:35.543Z,69.15
2022-08-29T08:31:32.688Z,73.24
2022-08-29T08:32:32.820Z,70.12
2022-08-29T08:33:34.867Z,68.88
2022-08-29T08:34:35.771Z,69.92
2022-08-29T08:35:32.558Z,69.52
2022-08-29T08:36:32.472Z,68.82
2022-08-29T08:37:32.456Z,69.82
2022-08-29T08:38:32.423Z,70.29
2022-08-29T08:39:32.408Z,71.00
2022-08-29T08:40:32.440Z,68.72
2022-08-29T08:41:32.520Z,68.92
2022-08-29T08:42:32.417Z,70.09
2022-08-29T08:43:32.367Z,69.49
2022-08-29T08:44:35.005Z,68.79
2022-08-29T08:45:32.356Z,67.65
2022-08-29T08:46:32.390Z,69.92
2022-08-29T08:47:33.376Z,69.06
2022-08-29T08:48:32.378Z,69.32
2022-08-29T08:49:32.308Z,69.29
2022-08-29T08:50:32.298Z,66.82
2022-08-29T08:51:32.297Z,69.42
2022-08-29T08:52:32.271Z,69.09
2022-08-29T08:53:32.301Z,70.09
2022-08-29T08:54:32.269Z,66.75
2022-08-29T08:55:32.246Z,67.25
2022-08-29T08:56:32.256Z,67.59
2022-08-29T08:57:32.260Z,68.89
2022-08-29T08:58:32.248Z,69.96
2022-08-29T08:59:32.200Z,67.09
2022-08-29T09:00:32.178Z,66.39
2022-08-29T09:01:32.299Z,68.76
2022-08-29T09:02:32.242Z,66.22
2022-08-29T09:03:32.157Z,66.05
2022-08-29T09:04:32.162Z,66.66
2022-08-29T09:05:32.126Z,67.46
2022-08-29T09:06:32.119Z,66.55
2022-08-29T09:07:32.104Z,67.66
2022-08-29T09:08:32.187Z,67.96
2022-08-29T09:09:32.099Z,66.78
2022-08-29T09:10:32.070Z,68.89
2022-08-29T09:11:32.069Z,69.36
2022-08-29T09:12:32.059Z,67.02
2022-08-29T09:13:32.055Z,66.69
2022-08-29T09:14:32.059Z,67.55
2022-08-29T09:15:32.967Z,66.63
2022-08-29T09:16:32.405Z,69.16
2022-08-29T09:17:32.129Z,66.70
2022-08-29T09:18:31.991Z,66.70
2022-08-29T09:19:32.020Z,64.29
2022-08-29T09:20:31.968Z,64.56
2022-08-29T09:21:44.911Z,66.63
2022-08-29T09:22:33.299Z,64.23
2022-08-29T09:23:31.936Z,66.09
2022-08-29T09:24:31.971Z,63.50
2022-08-29T09:25:31.924Z,65.83
2022-08-29T09:26:31.902Z,66.73
2022-08-29T09:27:31.912Z,64.00
2022-08-29T09:28:31.889Z,64.49
2022-08-29T09:29:31.871Z,66.73
2022-08-29T09:30:31.896Z,63.30
2022-08-29T09:31:31.891Z,63.09
2022-08-29T09:32:31.837Z,65.92
2022-08-29T09:33:31.829Z,66.36
2022-08-29T09:34:50.495Z,66.02
2022-08-29T09:35:32.853Z,66.89
2022-08-29T09:36:31.797Z,66.13
2022-08-29T09:37:31.801Z,64.53
2022-08-29T09:38:31.782Z,63.26
2022-08-29T09:39:31.760Z,64.26
2022-08-29T09:40:31.822Z,64.40
2022-08-29T09:41:31.813Z,63.67
2022-08-29T09:42:31.741Z,63.20
2022-08-29T09:43:31.730Z,64.44
2022-08-29T09:44:31.735Z,60.25
2022-08-29T09:45:31.772Z,61.18
2022-08-29T09:46:31.708Z,63.57
2022-08-29T09:47:31.731Z,63.70
2022-08-29T09:48:35.379Z,66.33
2022-08-29T09:49:31.661Z,62.29
2022-08-29T09:50:31.653Z,62.21
2022-08-29T09:51:31.650Z,64.61
2022-08-29T09:52:31.659Z,60.69
2022-08-29T09:53:31.624Z,60.92
2022-08-29T09:54:31.614Z,61.88
2022-08-29T09:55:31.594Z,58.40
2022-08-29T09:56:31.587Z,60.25
2022-08-29T09:57:31.586Z,62.68
2022-08-29T09:58:34.258Z,58.87
2022-08-29T09:59:32.562Z,61.13
2022-08-29T10:00:31.563Z,57.28
2022-08-29T10:01:31.609Z,58.40
2022-08-29T10:02:31.628Z,60.99
2022-08-29T10:03:31.508Z,58.95
2022-08-29T10:04:31.538Z,59.85
2022-08-29T10:05:31.485Z,60.62
2022-08-29T10:06:31.496Z,61.19
2022-08-29T10:07:31.470Z,59.74
2022-08-29T10:08:31.461Z,60.29
2022-08-29T10:09:31.443Z,60.16
2022-08-29T10:10:31.547Z,58.07
2022-08-29T10:11:31.465Z,57.80
2022-08-29T10:12:31.419Z,56.77
2022-08-29T10:13:31.393Z,59.04
2022-08-29T10:14:31.395Z,60.03
2022-08-29T10:15:50.054Z,59.01
2022-08-29T10:16:32.413Z,58.74
2022-08-29T10:17:31.367Z,59.34
2022-08-29T10:18:31.354Z,57.57
2022-08-29T10:19:33.129Z,57.70
2022-08-29T10:20:31.323Z,59.72
2022-08-29T10:21:31.328Z,61.03
2022-08-29T10:22:31.299Z,57.54
2022-08-29T10:23:31.331Z,56.55
2022-08-29T10:24:31.279Z,58.01
2022-08-29T10:25:31.266Z,55.43
2022-08-29T10:26:31.273Z,57.35
2022-08-29T10:27:31.245Z,55.65
2022-08-29T10:28:31.236Z,56.30
2022-08-29T10:29:31.991Z,57.50
2022-08-29T10:30:31.222Z,57.35
2022-08-29T10:31:31.225Z,57.29
2022-08-29T10:32:31.202Z,56.42
2022-08-29T10:33:31.192Z,56.23
2022-08-29T10:34:31.177Z,55.26
2022-08-29T10:35:31.180Z,58.59
2022-08-29T10:36:31.146Z,59.02
2022-08-29T10:37:31.140Z,61.36
2022-08-29T10:38:31.134Z,59.11
2022-08-29T10:39:31.112Z,59.55
2022-08-29T10:40:31.167Z,59.25
2022-08-29T10:41:31.133Z,58.92
2022-08-29T10:42:31.092Z,57.24
2022-08-29T10:43:31.085Z,57.36
2022-08-29T10:44:31.076Z,56.74
2022-08-29T10:45:31.085Z,58.90
2022-08-29T10:46:31.071Z,55.94
2022-08-29T10:47:31.029Z,58.10
2022-08-29T10:48:31.035Z,56.61
2022-08-29T10:49:31.056Z,56.17
2022-08-29T10:50:46.388Z,57.64
2022-08-29T10:51:31.981Z,57.41
2022-08-29T10:52:30.970Z,58.87
2022-08-29T10:53:30.979Z,56.56
2022-08-29T10:54:30.954Z,53.85
2022-08-29T10:55:30.947Z,54.77
2022-08-29T10:56:30.935Z,54.68
2022-08-29T10:57:30.916Z,54.94
2022-08-29T10:58:30.917Z,58.09
2022-08-29T10:59:30.914Z,55.11
2022-08-29T11:00:30.886Z,54.02
2022-08-29T11:01:31.035Z,51.60
2022-08-29T11:02:30.866Z,53.68
2022-08-29T11:03:30.862Z,51.23
2022-08-29T11:04:30.858Z,54.06
2022-08-29T11:05:30.835Z,51.15
2022-08-29T11:06:30.877Z,53.73
2022-08-29T11:07:30.928Z,53.51
2022-08-29T11:08:30.827Z,51.70
2022-08-29T11:09:30.791Z,50.63
2022-08-29T11:10:30.782Z,49.63
2022-08-29T11:11:30.773Z,51.00
2022-08-29T11:12:30.766Z,53.16
2022-08-29T11:13:30.759Z,52.66
2022-08-29T11:14:30.802Z,53.51
2022-08-29T11:15:30.739Z,53.80
2022-08-29T11:16:30.782Z,53.08
2022-08-29T11:17:30.707Z,51.84
2022-08-29T11:18:30.697Z,56.32
2022-08-29T11:19:30.706Z,56.41
2022-08-29T11:20:30.672Z,57.38
2022-08-29T11:21:30.697Z,55.82
2022-08-29T11:22:30.654Z,56.29
2022-08-29T11:23:30.661Z,55.64
2022-08-29T11:24:34.337Z,53.98
2022-08-29T11:25:30.638Z,56.26
2022-08-29T11:26:30.611Z,56.13
2022-08-29T11:27:31.281Z,55.96
2022-08-29T11:28:30.664Z,57.42
2022-08-29T11:29:30.581Z,55.41
2022-08-29T11:30:30.569Z,57.99
2022-08-29T11:31:30.581Z,55.34
2022-08-29T11:32:30.585Z,56.63
2022-08-29T11:33:31.545Z,56.40
2022-08-29T11:34:30.527Z,53.44
2022-08-29T11:35:30.577Z,57.08
2022-08-29T11:36:30.504Z,56.46
2022-08-29T11:37:30.491Z,53.80
2022-08-29T11:38:30.482Z,53.21
2022-08-29T11:39:30.467Z,54.23
2022-08-29T11:41:31.533Z,54.08
2022-08-29T11:43:31.426Z,55.97
2022-08-29T11:44:30.417Z,51.97
2022-08-29T11:45:37.324Z,55.72
2022-08-29T11:46:31.439Z,56.38
2022-08-29T11:47:30.409Z,53.63
2022-08-29T11:48:30.399Z,54.06
2022-08-29T11:49:30.364Z,52.37
2022-08-29T11:50:30.350Z,50.80
2022-08-29T11:51:30.344Z,53.28
2022-08-29T11:52:30.329Z,53.93
2022-08-29T11:53:30.337Z,53.78
2022-08-29T11:54:30.327Z,51.28
2022-08-29T11:55:30.322Z,51.92
2022-08-29T11:56:30.289Z,50.85
2022-08-29T11:57:30.281Z,49.37
2022-08-29T11:58:30.270Z,50.06
2022-08-29T11:59:30.313Z,51.05
2022-08-29T12:00:30.268Z,51.42
2022-08-29T12:01:30.250Z,49.93
2022-08-29T12:02:30.244Z,49.74
2022-08-29T12:03:30.580Z,51.05
2022-08-29T12:04:30.232Z,53.66
2022-08-29T12:05:30.197Z,53.08
2022-08-29T12:06:30.252Z,51.40
2022-08-29T12:07:30.191Z,48.03
2022-08-29T12:08:36.934Z,46.47
2022-08-29T12:09:31.204Z,49.84
2022-08-29T12:10:30.140Z,51.30
2022-08-29T12:11:30.139Z,52.86
2022-08-29T12:12:30.133Z,51.84
2022-08-29T12:13:30.111Z,46.82
2022-08-29T12:14:33.166Z,44.98
2022-08-29T12:15:31.092Z,51.52
2022-08-29T12:16:30.168Z,49.69
2022-08-29T12:17:51.427Z,49.71
2022-08-29T12:18:34.600Z,46.72
2022-08-29T12:19:31.046Z,44.37
2022-08-29T12:20:30.036Z,47.53
2022-08-29T12:21:30.122Z,45.68
2022-08-29T12:22:30.080Z,50.13
2022-08-29T12:23:30.009Z,46.25
2022-08-29T12:24:30.012Z,47.86
2022-08-29T12:25:30.004Z,46.17
2022-08-29T12:26:29.968Z,46.35
2022-08-29T12:27:29.970Z,46.67
2022-08-29T12:28:30.757Z,48.43
2022-08-29T12:29:29.936Z,48.11
2022-08-29T12:30:29.936Z,47.52
2022-08-29T12:31:30.002Z,49.19
2022-08-29T12:32:32.179Z,50.68
2022-08-29T12:33:29.892Z,50.85
2022-08-29T12:34:29.891Z,49.64
2022-08-29T12:35:29.871Z,47.78
2022-08-29T12:36:29.878Z,49.07
2022-08-29T12:37:31.601Z,47.99
2022-08-29T12:38:29.842Z,47.89
2022-08-29T12:39:29.839Z,46.74
2022-08-29T12:40:29.892Z,47.36
2022-08-29T12:41:29.816Z,47.16
2022-08-29T12:42:29.813Z,48.49
2022-08-29T12:43:29.821Z,47.92
2022-08-29T12:44:29.798Z,48.32
2022-08-29T12:45:29.780Z,49.78
2022-08-29T12:46:29.825Z,51.05
2022-08-29T12:47:29.764Z,52.09
2022-08-29T12:48:29.731Z,49.69
2022-08-29T12:49:29.724Z,50.18
2022-08-29T12:50:29.730Z,50.85
2022-08-29T12:51:29.705Z,51.52
2022-08-29T12:52:29.694Z,50.31
2022-08-29T12:53:29.710Z,50.31
2022-08-29T12:54:29.683Z,47.66